Rothaargebirge, Germany

4:34 PM CET on December 21, 2014 (GMT +0100)
Deuz, Siegerland, NRW, Germany | Change Station
CLOSE
Current Station
Personal Weather Station
Location: Netphen, NORDRHEIN-WESTFALEN
Elevation: 1079 ft
Nearby Weather Stations

Elev 1079 ft 50.89 °N, 8.14 °E | Updated 3 minutes ago

Light Rain
Light Rain Drizzle
40.5 °F
Feels Like 40 °F
N
0.0
Wind Variable Wind from SW
Gusts 2.2 mph

Today
High -- | Low -- °F
--% Chance of Precip.
Yesterday
High -- | Low -- °F
Precip. -- in
8:27 AM 4:22 PM
Waning Crescent, 0% visible
Pressure 30.27 in
Visibility 3.7 miles
Clouds Scattered Clouds 200 ft
Mostly Cloudy 400 ft
Windchill 40 °F
Dew Point 40 °F
Humidity 99%
Rainfall 0.07 in
Snow Depth Not available.
UV 0 out of 12
Pollen Not available.
Air Quality Not available.
Flu Activity Not available.
METAR EDGS 211520Z 23014KT 6000 -RADZ SCT002 BKN004 03/03 Q1025

More Conditions Fewer Conditions

Pressure 30.27 in
Visibility 3.7 miles
Clouds Scattered Clouds 200 ft
Mostly Cloudy 400 ft
Windchill 40 °F
Dew Point 40 °F
Humidity 99%
Rainfall 0.07 in
Snow Depth Not available.
UV 0 out of 12
Pollen Not available.
Air Quality Not available.
Flu Activity Not available.
METAR EDGS 211520Z 23014KT 6000 -RADZ SCT002 BKN004 03/03 Q1025

More Conditions Fewer Conditions

10-Day Weather Forecast

Almanac

Astronomy

Dec. 21, 2014 Rise Set
Actual Time
Civil Twilight
Nautical Twilight
Astronomical Twilight
Moon
Length of Visible Light
Length of Day
Tomorrow will be .
, % of the Moon is Illuminated

Today's Extremes

Country Highs Country Lows

Community

WunderPhotos

Upload Photos

1,779,412 photos uploaded!

WunderBlogs® & News

Nearby

Air Quality

  Air Quality AQ Index Pollutant
Not available.

Snow Depth

Station Depth Elevation

Earthquake Activity

City Distance Mag. Time & Date
Minimum magnitude displayed is 2.5.

Coastal Water Temperatures

Place Temperature

Nearby Weather Stations